sensor_id;sensor_type;location;lat;lon;timestamp;P1;durP1;ratioP1;P2;durP2;ratioP2
73747;SDS011;62056;52.130;5.428;2022-12-18T00:01:14;31.33;;;13.70;;
73747;SDS011;62056;52.130;5.428;2022-12-18T00:03:43;40.88;;;16.17;;
73747;SDS011;62056;52.130;5.428;2022-12-18T00:06:11;34.83;;;13.52;;
73747;SDS011;62056;52.130;5.428;2022-12-18T00:08:38;35.42;;;13.60;;
73747;SDS011;62056;52.130;5.428;2022-12-18T00:11:07;39.80;;;15.87;;
73747;SDS011;62056;52.130;5.428;2022-12-18T00:13:36;42.35;;;15.90;;
73747;SDS011;62056;52.130;5.428;2022-12-18T00:16:04;41.42;;;15.30;;
73747;SDS011;62056;52.130;5.428;2022-12-18T00:18:33;33.55;;;15.35;;
73747;SDS011;62056;52.130;5.428;2022-12-18T00:21:00;35.97;;;14.85;;
73747;SDS011;62056;52.130;5.428;2022-12-18T00:23:29;40.73;;;15.07;;
73747;SDS011;62056;52.130;5.428;2022-12-18T00:25:59;40.85;;;14.85;;
73747;SDS011;62056;52.130;5.428;2022-12-18T00:28:30;27.13;;;11.55;;
73747;SDS011;62056;52.130;5.428;2022-12-18T00:31:01;34.92;;;14.90;;
73747;SDS011;62056;52.130;5.428;2022-12-18T00:33:30;38.40;;;14.45;;
73747;SDS011;62056;52.130;5.428;2022-12-18T00:36:06;45.37;;;15.50;;
73747;SDS011;62056;52.130;5.428;2022-12-18T00:38:34;36.22;;;13.32;;
73747;SDS011;62056;52.130;5.428;2022-12-18T00:41:01;41.75;;;15.18;;
73747;SDS011;62056;52.130;5.428;2022-12-18T00:43:28;23.58;;;10.93;;
73747;SDS011;62056;52.130;5.428;2022-12-18T00:45:55;31.95;;;12.75;;
73747;SDS011;62056;52.130;5.428;2022-12-18T00:48:22;36.67;;;14.40;;
73747;SDS011;62056;52.130;5.428;2022-12-18T00:50:48;36.10;;;13.73;;
73747;SDS011;62056;52.130;5.428;2022-12-18T00:53:16;41.15;;;15.80;;
73747;SDS011;62056;52.130;5.428;2022-12-18T00:55:43;40.90;;;16.35;;
73747;SDS011;62056;52.130;5.428;2022-12-18T00:58:10;40.78;;;15.40;;
73747;SDS011;62056;52.130;5.428;2022-12-18T01:00:39;36.10;;;14.27;;
73747;SDS011;62056;52.130;5.428;2022-12-18T01:03:06;42.83;;;16.50;;
73747;SDS011;62056;52.130;5.428;2022-12-18T01:05:33;44.58;;;15.35;;
73747;SDS011;62056;52.130;5.428;2022-12-18T01:08:00;43.63;;;16.05;;
73747;SDS011;62056;52.130;5.428;2022-12-18T01:10:26;40.60;;;15.05;;
73747;SDS011;62056;52.130;5.428;2022-12-18T01:12:53;45.30;;;17.20;;
73747;SDS011;62056;52.130;5.428;2022-12-18T01:15:19;40.20;;;15.55;;
73747;SDS011;62056;52.130;5.428;2022-12-18T01:17:46;44.15;;;16.33;;
73747;SDS011;62056;52.130;5.428;2022-12-18T01:20:13;42.15;;;14.05;;
73747;SDS011;62056;52.130;5.428;2022-12-18T01:22:40;38.25;;;14.27;;
73747;SDS011;62056;52.130;5.428;2022-12-18T01:25:07;30.70;;;13.03;;
73747;SDS011;62056;52.130;5.428;2022-12-18T01:27:34;42.58;;;16.77;;
73747;SDS011;62056;52.130;5.428;2022-12-18T01:30:01;37.80;;;15.05;;
73747;SDS011;62056;52.130;5.428;2022-12-18T01:32:29;50.42;;;16.08;;
73747;SDS011;62056;52.130;5.428;2022-12-18T01:34:56;40.40;;;14.57;;
73747;SDS011;62056;52.130;5.428;2022-12-18T01:37:23;50.27;;;18.07;;
73747;SDS011;62056;52.130;5.428;2022-12-18T01:39:51;40.45;;;16.15;;
73747;SDS011;62056;52.130;5.428;2022-12-18T01:42:20;41.67;;;14.48;;
73747;SDS011;62056;52.130;5.428;2022-12-18T01:50:06;43.97;;;16.07;;
73747;SDS011;62056;52.130;5.428;2022-12-18T01:52:37;44.95;;;17.38;;
73747;SDS011;62056;52.130;5.428;2022-12-18T01:55:05;45.08;;;16.80;;
73747;SDS011;62056;52.130;5.428;2022-12-18T01:57:33;47.20;;;16.20;;
73747;SDS011;62056;52.130;5.428;2022-12-18T02:00:03;38.30;;;15.23;;
73747;SDS011;62056;52.130;5.428;2022-12-18T02:02:32;39.43;;;14.47;;
73747;SDS011;62056;52.130;5.428;2022-12-18T02:04:59;39.80;;;15.00;;
73747;SDS011;62056;52.130;5.428;2022-12-18T02:12:52;37.33;;;15.40;;
73747;SDS011;62056;52.130;5.428;2022-12-18T02:15:31;32.47;;;14.80;;
73747;SDS011;62056;52.130;5.428;2022-12-18T02:18:13;30.40;;;10.68;;
73747;SDS011;62056;52.130;5.428;2022-12-18T02:20:47;44.85;;;15.55;;
73747;SDS011;62056;52.130;5.428;2022-12-18T02:23:45;52.53;;;16.20;;
73747;SDS011;62056;52.130;5.428;2022-12-18T02:26:23;40.88;;;13.82;;
73747;SDS011;62056;52.130;5.428;2022-12-18T02:29:00;38.83;;;15.63;;
73747;SDS011;62056;52.130;5.428;2022-12-18T02:31:32;35.60;;;13.93;;
73747;SDS011;62056;52.130;5.428;2022-12-18T02:34:06;36.45;;;15.32;;
73747;SDS011;62056;52.130;5.428;2022-12-18T02:36:36;34.22;;;15.55;;
73747;SDS011;62056;52.130;5.428;2022-12-18T02:39:05;34.47;;;16.15;;
73747;SDS011;62056;52.130;5.428;2022-12-18T02:41:35;41.83;;;16.57;;
73747;SDS011;62056;52.130;5.428;2022-12-18T02:44:07;34.33;;;13.93;;
73747;SDS011;62056;52.130;5.428;2022-12-18T02:46:41;46.72;;;15.90;;
73747;SDS011;62056;52.130;5.428;2022-12-18T02:49:12;40.42;;;16.08;;
73747;SDS011;62056;52.130;5.428;2022-12-18T02:52:06;37.88;;;14.45;;
73747;SDS011;62056;52.130;5.428;2022-12-18T03:00:20;32.67;;;13.93;;
73747;SDS011;62056;52.130;5.428;2022-12-18T03:05:24;39.38;;;14.65;;
73747;SDS011;62056;52.130;5.428;2022-12-18T03:07:58;29.40;;;14.47;;
73747;SDS011;62056;52.130;5.428;2022-12-18T03:10:31;32.30;;;14.63;;
73747;SDS011;62056;52.130;5.428;2022-12-18T03:13:08;42.20;;;15.00;;
73747;SDS011;62056;52.130;5.428;2022-12-18T03:15:42;34.47;;;14.30;;
73747;SDS011;62056;52.130;5.428;2022-12-18T03:18:17;33.45;;;14.07;;
73747;SDS011;62056;52.130;5.428;2022-12-18T03:20:57;39.13;;;15.03;;
73747;SDS011;62056;52.130;5.428;2022-12-18T03:23:27;33.58;;;13.75;;
73747;SDS011;62056;52.130;5.428;2022-12-18T03:25:59;37.38;;;14.18;;
73747;SDS011;62056;52.130;5.428;2022-12-18T03:28:33;33.65;;;13.70;;
73747;SDS011;62056;52.130;5.428;2022-12-18T03:31:04;23.52;;;11.70;;
73747;SDS011;62056;52.130;5.428;2022-12-18T03:33:38;39.37;;;14.67;;
73747;SDS011;62056;52.130;5.428;2022-12-18T03:36:11;31.02;;;13.65;;
73747;SDS011;62056;52.130;5.428;2022-12-18T03:38:38;31.98;;;11.00;;
73747;SDS011;62056;52.130;5.428;2022-12-18T03:43:48;30.30;;;13.98;;
73747;SDS011;62056;52.130;5.428;2022-12-18T03:46:17;29.17;;;12.10;;
73747;SDS011;62056;52.130;5.428;2022-12-18T03:48:52;31.15;;;10.95;;
73747;SDS011;62056;52.130;5.428;2022-12-18T03:51:27;32.47;;;12.57;;
73747;SDS011;62056;52.130;5.428;2022-12-18T03:54:03;29.10;;;12.63;;
73747;SDS011;62056;52.130;5.428;2022-12-18T03:56:34;26.83;;;12.25;;
73747;SDS011;62056;52.130;5.428;2022-12-18T03:59:06;22.63;;;12.00;;
73747;SDS011;62056;52.130;5.428;2022-12-18T04:01:38;27.88;;;11.68;;
73747;SDS011;62056;52.130;5.428;2022-12-18T04:04:07;29.70;;;11.82;;
73747;SDS011;62056;52.130;5.428;2022-12-18T04:06:36;24.23;;;11.23;;
73747;SDS011;62056;52.130;5.428;2022-12-18T04:09:04;29.08;;;12.40;;
73747;SDS011;62056;52.130;5.428;2022-12-18T04:11:31;29.73;;;12.73;;
73747;SDS011;62056;52.130;5.428;2022-12-18T04:13:58;28.77;;;13.10;;
73747;SDS011;62056;52.130;5.428;2022-12-18T04:16:29;20.45;;;9.85;;
73747;SDS011;62056;52.130;5.428;2022-12-18T04:18:56;25.83;;;11.48;;
73747;SDS011;62056;52.130;5.428;2022-12-18T04:21:23;30.70;;;12.20;;
73747;SDS011;62056;52.130;5.428;2022-12-18T04:23:50;29.97;;;11.97;;
73747;SDS011;62056;52.130;5.428;2022-12-18T04:26:16;24.15;;;9.40;;
73747;SDS011;62056;52.130;5.428;2022-12-18T04:28:43;23.33;;;9.20;;
73747;SDS011;62056;52.130;5.428;2022-12-18T04:31:10;20.80;;;10.77;;
73747;SDS011;62056;52.130;5.428;2022-12-18T04:33:36;20.92;;;10.00;;
73747;SDS011;62056;52.130;5.428;2022-12-18T04:36:04;19.37;;;9.57;;
73747;SDS011;62056;52.130;5.428;2022-12-18T04:38:31;23.50;;;10.10;;
73747;SDS011;62056;52.130;5.428;2022-12-18T04:40:58;24.45;;;11.25;;
73747;SDS011;62056;52.130;5.428;2022-12-18T04:43:25;21.10;;;9.93;;
73747;SDS011;62056;52.130;5.428;2022-12-18T04:45:51;25.15;;;10.90;;
73747;SDS011;62056;52.130;5.428;2022-12-18T04:48:18;24.10;;;9.47;;
73747;SDS011;62056;52.130;5.428;2022-12-18T04:50:46;24.95;;;10.20;;
73747;SDS011;62056;52.130;5.428;2022-12-18T04:53:14;23.02;;;10.30;;
73747;SDS011;62056;52.130;5.428;2022-12-18T04:55:40;18.92;;;10.02;;
73747;SDS011;62056;52.130;5.428;2022-12-18T04:58:07;22.58;;;10.52;;
73747;SDS011;62056;52.130;5.428;2022-12-18T05:00:34;15.30;;;7.77;;
73747;SDS011;62056;52.130;5.428;2022-12-18T05:03:02;22.70;;;8.27;;
73747;SDS011;62056;52.130;5.428;2022-12-18T05:05:29;19.60;;;10.18;;
73747;SDS011;62056;52.130;5.428;2022-12-18T05:07:56;23.10;;;10.25;;
73747;SDS011;62056;52.130;5.428;2022-12-18T05:10:23;15.88;;;9.20;;
73747;SDS011;62056;52.130;5.428;2022-12-18T05:12:50;14.07;;;8.80;;
73747;SDS011;62056;52.130;5.428;2022-12-18T05:15:27;16.60;;;8.32;;
73747;SDS011;62056;52.130;5.428;2022-12-18T05:17:55;18.52;;;8.80;;
73747;SDS011;62056;52.130;5.428;2022-12-18T05:20:23;20.70;;;8.27;;
73747;SDS011;62056;52.130;5.428;2022-12-18T05:22:51;17.35;;;7.35;;
73747;SDS011;62056;52.130;5.428;2022-12-18T05:25:18;21.10;;;8.40;;
73747;SDS011;62056;52.130;5.428;2022-12-18T05:27:46;14.55;;;7.18;;
73747;SDS011;62056;52.130;5.428;2022-12-18T05:30:12;10.05;;;6.97;;
73747;SDS011;62056;52.130;5.428;2022-12-18T05:32:39;23.63;;;9.05;;
73747;SDS011;62056;52.130;5.428;2022-12-18T05:35:07;12.07;;;6.97;;
73747;SDS011;62056;52.130;5.428;2022-12-18T05:37:35;22.27;;;7.43;;
73747;SDS011;62056;52.130;5.428;2022-12-18T05:40:08;12.20;;;5.90;;
73747;SDS011;62056;52.130;5.428;2022-12-18T05:42:35;15.18;;;7.78;;
73747;SDS011;62056;52.130;5.428;2022-12-18T05:45:02;15.68;;;7.22;;
73747;SDS011;62056;52.130;5.428;2022-12-18T05:47:29;19.85;;;8.57;;
73747;SDS011;62056;52.130;5.428;2022-12-18T05:49:56;20.67;;;8.97;;
73747;SDS011;62056;52.130;5.428;2022-12-18T05:52:22;20.13;;;8.52;;
73747;SDS011;62056;52.130;5.428;2022-12-18T05:54:49;12.50;;;6.53;;
73747;SDS011;62056;52.130;5.428;2022-12-18T05:57:16;16.55;;;7.63;;
73747;SDS011;62056;52.130;5.428;2022-12-18T05:59:43;13.85;;;7.63;;
73747;SDS011;62056;52.130;5.428;2022-12-18T06:02:09;16.40;;;7.13;;
73747;SDS011;62056;52.130;5.428;2022-12-18T06:04:36;15.88;;;7.20;;
73747;SDS011;62056;52.130;5.428;2022-12-18T06:07:03;18.83;;;9.20;;
73747;SDS011;62056;52.130;5.428;2022-12-18T06:09:29;16.67;;;9.10;;
73747;SDS011;62056;52.130;5.428;2022-12-18T06:11:56;20.25;;;8.95;;
73747;SDS011;62056;52.130;5.428;2022-12-18T06:14:22;15.50;;;7.97;;
73747;SDS011;62056;52.130;5.428;2022-12-18T06:16:52;11.48;;;7.30;;
73747;SDS011;62056;52.130;5.428;2022-12-18T06:19:19;17.42;;;8.32;;
73747;SDS011;62056;52.130;5.428;2022-12-18T06:21:46;17.27;;;7.85;;
73747;SDS011;62056;52.130;5.428;2022-12-18T06:24:13;17.38;;;7.32;;
73747;SDS011;62056;52.130;5.428;2022-12-18T06:26:39;16.70;;;8.47;;
73747;SDS011;62056;52.130;5.428;2022-12-18T06:29:06;19.52;;;8.88;;
73747;SDS011;62056;52.130;5.428;2022-12-18T06:31:33;17.63;;;8.00;;
73747;SDS011;62056;52.130;5.428;2022-12-18T06:34:01;16.02;;;8.45;;
73747;SDS011;62056;52.130;5.428;2022-12-18T06:36:29;14.60;;;8.40;;
73747;SDS011;62056;52.130;5.428;2022-12-18T06:38:55;14.97;;;8.23;;
73747;SDS011;62056;52.130;5.428;2022-12-18T06:41:22;13.93;;;8.57;;
73747;SDS011;62056;52.130;5.428;2022-12-18T06:43:49;13.35;;;7.75;;
73747;SDS011;62056;52.130;5.428;2022-12-18T06:46:19;19.77;;;8.55;;
73747;SDS011;62056;52.130;5.428;2022-12-18T06:48:47;11.05;;;6.95;;
73747;SDS011;62056;52.130;5.428;2022-12-18T06:51:16;15.33;;;6.60;;
73747;SDS011;62056;52.130;5.428;2022-12-18T06:53:44;13.70;;;8.18;;
73747;SDS011;62056;52.130;5.428;2022-12-18T06:56:10;20.13;;;9.05;;
73747;SDS011;62056;52.130;5.428;2022-12-18T06:58:38;13.93;;;6.93;;
73747;SDS011;62056;52.130;5.428;2022-12-18T07:01:05;15.63;;;8.23;;
73747;SDS011;62056;52.130;5.428;2022-12-18T07:03:34;12.63;;;7.23;;
73747;SDS011;62056;52.130;5.428;2022-12-18T07:06:01;16.30;;;7.70;;
73747;SDS011;62056;52.130;5.428;2022-12-18T07:08:28;17.33;;;8.07;;
73747;SDS011;62056;52.130;5.428;2022-12-18T07:10:56;13.95;;;8.18;;
73747;SDS011;62056;52.130;5.428;2022-12-18T07:13:23;16.55;;;8.45;;
73747;SDS011;62056;52.130;5.428;2022-12-18T07:15:49;14.97;;;7.60;;
73747;SDS011;62056;52.130;5.428;2022-12-18T07:18:16;15.55;;;7.82;;
73747;SDS011;62056;52.130;5.428;2022-12-18T07:20:43;15.43;;;8.07;;
73747;SDS011;62056;52.130;5.428;2022-12-18T07:23:11;16.30;;;7.32;;
73747;SDS011;62056;52.130;5.428;2022-12-18T07:25:37;13.55;;;8.35;;
73747;SDS011;62056;52.130;5.428;2022-12-18T07:28:04;22.23;;;8.50;;
73747;SDS011;62056;52.130;5.428;2022-12-18T07:30:31;15.65;;;8.40;;
73747;SDS011;62056;52.130;5.428;2022-12-18T07:32:57;14.65;;;7.47;;
73747;SDS011;62056;52.130;5.428;2022-12-18T07:35:24;11.00;;;6.55;;
73747;SDS011;62056;52.130;5.428;2022-12-18T07:37:51;11.40;;;6.70;;
73747;SDS011;62056;52.130;5.428;2022-12-18T07:40:17;17.50;;;7.27;;
73747;SDS011;62056;52.130;5.428;2022-12-18T07:42:44;16.00;;;7.93;;
73747;SDS011;62056;52.130;5.428;2022-12-18T07:45:11;17.42;;;8.20;;
73747;SDS011;62056;52.130;5.428;2022-12-18T07:47:37;15.40;;;7.75;;
73747;SDS011;62056;52.130;5.428;2022-12-18T07:50:04;17.58;;;8.80;;
73747;SDS011;62056;52.130;5.428;2022-12-18T07:52:31;18.70;;;8.27;;
73747;SDS011;62056;52.130;5.428;2022-12-18T07:54:58;11.85;;;7.65;;
73747;SDS011;62056;52.130;5.428;2022-12-18T07:57:27;10.95;;;7.03;;
73747;SDS011;62056;52.130;5.428;2022-12-18T08:00:14;17.27;;;7.82;;
73747;SDS011;62056;52.130;5.428;2022-12-18T08:02:41;16.08;;;7.85;;
73747;SDS011;62056;52.130;5.428;2022-12-18T08:05:08;14.37;;;6.77;;
73747;SDS011;62056;52.130;5.428;2022-12-18T08:07:34;11.32;;;6.45;;
73747;SDS011;62056;52.130;5.428;2022-12-18T08:10:01;20.77;;;7.70;;
73747;SDS011;62056;52.130;5.428;2022-12-18T08:12:29;14.40;;;7.05;;
73747;SDS011;62056;52.130;5.428;2022-12-18T08:14:55;12.43;;;7.50;;
73747;SDS011;62056;52.130;5.428;2022-12-18T08:17:22;13.17;;;8.47;;
73747;SDS011;62056;52.130;5.428;2022-12-18T08:19:48;9.73;;;6.45;;
73747;SDS011;62056;52.130;5.428;2022-12-18T08:22:15;17.52;;;7.43;;
73747;SDS011;62056;52.130;5.428;2022-12-18T08:24:42;13.88;;;7.28;;
73747;SDS011;62056;52.130;5.428;2022-12-18T08:27:09;10.82;;;6.70;;
73747;SDS011;62056;52.130;5.428;2022-12-18T08:29:55;11.57;;;7.17;;
73747;SDS011;62056;52.130;5.428;2022-12-18T08:32:22;14.68;;;8.05;;
73747;SDS011;62056;52.130;5.428;2022-12-18T08:34:49;10.32;;;7.53;;
73747;SDS011;62056;52.130;5.428;2022-12-18T08:37:15;12.38;;;8.20;;
73747;SDS011;62056;52.130;5.428;2022-12-18T08:39:42;12.00;;;7.30;;
73747;SDS011;62056;52.130;5.428;2022-12-18T08:42:08;14.77;;;7.53;;
73747;SDS011;62056;52.130;5.428;2022-12-18T08:44:53;12.85;;;7.00;;
73747;SDS011;62056;52.130;5.428;2022-12-18T08:47:20;11.10;;;6.53;;
73747;SDS011;62056;52.130;5.428;2022-12-18T08:49:47;15.10;;;7.63;;
73747;SDS011;62056;52.130;5.428;2022-12-18T08:52:13;15.27;;;8.50;;
73747;SDS011;62056;52.130;5.428;2022-12-18T08:54:40;15.03;;;7.37;;
73747;SDS011;62056;52.130;5.428;2022-12-18T08:57:06;7.57;;;6.07;;
73747;SDS011;62056;52.130;5.428;2022-12-18T08:59:33;11.63;;;7.68;;
73747;SDS011;62056;52.130;5.428;2022-12-18T09:01:59;12.25;;;7.88;;
73747;SDS011;62056;52.130;5.428;2022-12-18T09:04:26;12.40;;;7.70;;
73747;SDS011;62056;52.130;5.428;2022-12-18T09:06:53;14.03;;;7.93;;
73747;SDS011;62056;52.130;5.428;2022-12-18T09:09:19;16.40;;;8.35;;
73747;SDS011;62056;52.130;5.428;2022-12-18T09:11:46;12.27;;;7.75;;
73747;SDS011;62056;52.130;5.428;2022-12-18T09:14:12;13.48;;;7.97;;
73747;SDS011;62056;52.130;5.428;2022-12-18T09:16:39;14.23;;;7.75;;
73747;SDS011;62056;52.130;5.428;2022-12-18T09:19:06;14.30;;;7.90;;
73747;SDS011;62056;52.130;5.428;2022-12-18T09:21:34;12.13;;;7.07;;
73747;SDS011;62056;52.130;5.428;2022-12-18T09:24:02;11.30;;;7.03;;
73747;SDS011;62056;52.130;5.428;2022-12-18T09:26:34;12.50;;;7.75;;
73747;SDS011;62056;52.130;5.428;2022-12-18T09:29:01;14.93;;;8.32;;
73747;SDS011;62056;52.130;5.428;2022-12-18T09:31:28;15.67;;;7.57;;
73747;SDS011;62056;52.130;5.428;2022-12-18T09:33:55;14.32;;;7.13;;
73747;SDS011;62056;52.130;5.428;2022-12-18T09:36:22;11.75;;;6.82;;
73747;SDS011;62056;52.130;5.428;2022-12-18T09:38:49;11.85;;;6.72;;
73747;SDS011;62056;52.130;5.428;2022-12-18T09:44:17;13.37;;;6.97;;
73747;SDS011;62056;52.130;5.428;2022-12-18T09:46:53;11.07;;;7.00;;
73747;SDS011;62056;52.130;5.428;2022-12-18T09:49:28;13.30;;;6.93;;
73747;SDS011;62056;52.130;5.428;2022-12-18T09:52:01;9.98;;;7.00;;
73747;SDS011;62056;52.130;5.428;2022-12-18T09:54:40;11.30;;;6.40;;
73747;SDS011;62056;52.130;5.428;2022-12-18T09:57:20;12.37;;;6.60;;
73747;SDS011;62056;52.130;5.428;2022-12-18T09:59:56;8.27;;;6.00;;
73747;SDS011;62056;52.130;5.428;2022-12-18T10:02:30;11.05;;;6.63;;
73747;SDS011;62056;52.130;5.428;2022-12-18T10:05:10;10.88;;;6.82;;
73747;SDS011;62056;52.130;5.428;2022-12-18T10:07:47;12.25;;;6.22;;
73747;SDS011;62056;52.130;5.428;2022-12-18T10:15:36;11.10;;;6.93;;
73747;SDS011;62056;52.130;5.428;2022-12-18T10:20:49;10.07;;;6.10;;
73747;SDS011;62056;52.130;5.428;2022-12-18T10:23:28;9.63;;;5.07;;
73747;SDS011;62056;52.130;5.428;2022-12-18T10:26:11;9.48;;;5.80;;
73747;SDS011;62056;52.130;5.428;2022-12-18T10:28:42;9.63;;;5.93;;
73747;SDS011;62056;52.130;5.428;2022-12-18T10:31:20;10.68;;;6.53;;
73747;SDS011;62056;52.130;5.428;2022-12-18T10:33:50;7.43;;;4.75;;
73747;SDS011;62056;52.130;5.428;2022-12-18T10:36:17;8.77;;;6.07;;
73747;SDS011;62056;52.130;5.428;2022-12-18T10:38:44;11.18;;;5.55;;
73747;SDS011;62056;52.130;5.428;2022-12-18T10:43:43;10.07;;;5.90;;
73747;SDS011;62056;52.130;5.428;2022-12-18T10:51:24;9.65;;;5.72;;
73747;SDS011;62056;52.130;5.428;2022-12-18T10:53:57;8.55;;;4.78;;
73747;SDS011;62056;52.130;5.428;2022-12-18T10:56:29;8.00;;;6.07;;
73747;SDS011;62056;52.130;5.428;2022-12-18T10:59:02;10.93;;;5.88;;
73747;SDS011;62056;52.130;5.428;2022-12-18T11:01:48;9.83;;;5.50;;
73747;SDS011;62056;52.130;5.428;2022-12-18T11:04:22;8.70;;;5.88;;
73747;SDS011;62056;52.130;5.428;2022-12-18T11:06:55;7.55;;;5.05;;
73747;SDS011;62056;52.130;5.428;2022-12-18T11:11:58;7.78;;;5.55;;
73747;SDS011;62056;52.130;5.428;2022-12-18T11:16:58;10.02;;;6.00;;
73747;SDS011;62056;52.130;5.428;2022-12-18T11:19:52;12.82;;;5.65;;
73747;SDS011;62056;52.130;5.428;2022-12-18T11:22:23;8.63;;;5.82;;
73747;SDS011;62056;52.130;5.428;2022-12-18T11:27:53;12.07;;;6.70;;
73747;SDS011;62056;52.130;5.428;2022-12-18T11:35:45;8.98;;;5.20;;
73747;SDS011;62056;52.130;5.428;2022-12-18T11:40:56;8.27;;;5.17;;
73747;SDS011;62056;52.130;5.428;2022-12-18T11:43:31;9.13;;;4.93;;
73747;SDS011;62056;52.130;5.428;2022-12-18T11:46:04;15.18;;;6.25;;
73747;SDS011;62056;52.130;5.428;2022-12-18T11:51:23;7.40;;;5.13;;
73747;SDS011;62056;52.130;5.428;2022-12-18T11:53:54;9.43;;;5.60;;
73747;SDS011;62056;52.130;5.428;2022-12-18T11:56:29;7.47;;;5.53;;
73747;SDS011;62056;52.130;5.428;2022-12-18T11:59:29;9.07;;;5.55;;
73747;SDS011;62056;52.130;5.428;2022-12-18T12:02:11;7.60;;;5.45;;
73747;SDS011;62056;52.130;5.428;2022-12-18T12:10:22;11.68;;;7.13;;
73747;SDS011;62056;52.130;5.428;2022-12-18T12:13:01;11.35;;;6.47;;
73747;SDS011;62056;52.130;5.428;2022-12-18T12:18:08;10.90;;;6.18;;
73747;SDS011;62056;52.130;5.428;2022-12-18T12:20:50;11.53;;;6.23;;
73747;SDS011;62056;52.130;5.428;2022-12-18T12:28:42;9.52;;;6.05;;
73747;SDS011;62056;52.130;5.428;2022-12-18T12:31:46;10.82;;;6.25;;
73747;SDS011;62056;52.130;5.428;2022-12-18T12:36:55;11.93;;;6.20;;
73747;SDS011;62056;52.130;5.428;2022-12-18T12:39:36;14.63;;;6.25;;
73747;SDS011;62056;52.130;5.428;2022-12-18T12:42:10;8.15;;;5.25;;
73747;SDS011;62056;52.130;5.428;2022-12-18T12:45:03;6.65;;;3.58;;
73747;SDS011;62056;52.130;5.428;2022-12-18T12:47:35;8.67;;;6.10;;
73747;SDS011;62056;52.130;5.428;2022-12-18T12:50:05;11.57;;;6.65;;
73747;SDS011;62056;52.130;5.428;2022-12-18T12:52:52;10.52;;;6.57;;
73747;SDS011;62056;52.130;5.428;2022-12-18T12:55:21;8.20;;;5.78;;
73747;SDS011;62056;52.130;5.428;2022-12-18T13:06:24;11.07;;;6.40;;
73747;SDS011;62056;52.130;5.428;2022-12-18T13:09:09;8.55;;;5.65;;
73747;SDS011;62056;52.130;5.428;2022-12-18T13:11:38;9.65;;;6.80;;
73747;SDS011;62056;52.130;5.428;2022-12-18T13:17:14;9.77;;;5.15;;
73747;SDS011;62056;52.130;5.428;2022-12-18T13:19:50;10.00;;;6.47;;
73747;SDS011;62056;52.130;5.428;2022-12-18T13:22:24;9.98;;;6.65;;
73747;SDS011;62056;52.130;5.428;2022-12-18T13:24:56;9.93;;;6.05;;
73747;SDS011;62056;52.130;5.428;2022-12-18T13:40:58;12.00;;;6.37;;
73747;SDS011;62056;52.130;5.428;2022-12-18T13:46:06;11.15;;;6.95;;
73747;SDS011;62056;52.130;5.428;2022-12-18T13:51:20;15.80;;;6.30;;
73747;SDS011;62056;52.130;5.428;2022-12-18T13:53:51;9.90;;;6.03;;
73747;SDS011;62056;52.130;5.428;2022-12-18T13:56:21;9.43;;;5.90;;
73747;SDS011;62056;52.130;5.428;2022-12-18T13:59:03;10.63;;;6.20;;
73747;SDS011;62056;52.130;5.428;2022-12-18T14:01:42;10.30;;;6.43;;
73747;SDS011;62056;52.130;5.428;2022-12-18T14:04:24;7.68;;;5.75;;
73747;SDS011;62056;52.130;5.428;2022-12-18T14:06:58;12.43;;;6.87;;
73747;SDS011;62056;52.130;5.428;2022-12-18T14:09:31;10.50;;;6.10;;
73747;SDS011;62056;52.130;5.428;2022-12-18T14:12:05;7.75;;;5.22;;
73747;SDS011;62056;52.130;5.428;2022-12-18T14:14:51;15.10;;;7.30;;
73747;SDS011;62056;52.130;5.428;2022-12-18T14:17:21;12.52;;;6.68;;
73747;SDS011;62056;52.130;5.428;2022-12-18T14:19:50;8.67;;;5.90;;
73747;SDS011;62056;52.130;5.428;2022-12-18T14:22:24;11.88;;;7.43;;
73747;SDS011;62056;52.130;5.428;2022-12-18T14:25:10;11.75;;;7.15;;
73747;SDS011;62056;52.130;5.428;2022-12-18T14:27:47;11.90;;;7.15;;
73747;SDS011;62056;52.130;5.428;2022-12-18T14:30:35;10.23;;;6.95;;
73747;SDS011;62056;52.130;5.428;2022-12-18T14:33:09;12.17;;;6.97;;
73747;SDS011;62056;52.130;5.428;2022-12-18T14:35:38;11.52;;;6.95;;
73747;SDS011;62056;52.130;5.428;2022-12-18T14:40:46;14.23;;;7.50;;
73747;SDS011;62056;52.130;5.428;2022-12-18T14:43:13;7.75;;;5.22;;
73747;SDS011;62056;52.130;5.428;2022-12-18T14:45:42;9.00;;;6.50;;
73747;SDS011;62056;52.130;5.428;2022-12-18T14:50:39;8.13;;;6.00;;
73747;SDS011;62056;52.130;5.428;2022-12-18T14:53:05;13.02;;;6.63;;
73747;SDS011;62056;52.130;5.428;2022-12-18T14:55:47;11.55;;;7.00;;
73747;SDS011;62056;52.130;5.428;2022-12-18T14:58:15;10.93;;;6.90;;
73747;SDS011;62056;52.130;5.428;2022-12-18T15:00:43;10.82;;;6.78;;
73747;SDS011;62056;52.130;5.428;2022-12-18T15:03:12;10.60;;;6.80;;
73747;SDS011;62056;52.130;5.428;2022-12-18T15:05:44;13.05;;;6.90;;
73747;SDS011;62056;52.130;5.428;2022-12-18T15:08:28;16.25;;;7.95;;
73747;SDS011;62056;52.130;5.428;2022-12-18T15:10:58;13.73;;;7.73;;
73747;SDS011;62056;52.130;5.428;2022-12-18T15:13:24;11.98;;;7.30;;
73747;SDS011;62056;52.130;5.428;2022-12-18T15:15:52;9.45;;;5.72;;
73747;SDS011;62056;52.130;5.428;2022-12-18T15:18:22;15.05;;;7.53;;
73747;SDS011;62056;52.130;5.428;2022-12-18T15:20:56;16.83;;;8.38;;
73747;SDS011;62056;52.130;5.428;2022-12-18T15:23:26;12.07;;;7.73;;
73747;SDS011;62056;52.130;5.428;2022-12-18T15:26:14;12.85;;;7.00;;
73747;SDS011;62056;52.130;5.428;2022-12-18T15:28:46;12.40;;;7.70;;
73747;SDS011;62056;52.130;5.428;2022-12-18T15:36:19;11.70;;;7.40;;
73747;SDS011;62056;52.130;5.428;2022-12-18T15:38:52;11.05;;;6.22;;
73747;SDS011;62056;52.130;5.428;2022-12-18T15:41:23;16.23;;;7.97;;
73747;SDS011;62056;52.130;5.428;2022-12-18T15:43:51;12.15;;;6.60;;
73747;SDS011;62056;52.130;5.428;2022-12-18T15:46:23;13.80;;;8.27;;
73747;SDS011;62056;52.130;5.428;2022-12-18T15:48:51;10.87;;;7.07;;
73747;SDS011;62056;52.130;5.428;2022-12-18T15:53:56;20.00;;;9.70;;
73747;SDS011;62056;52.130;5.428;2022-12-18T15:56:24;19.38;;;9.38;;
73747;SDS011;62056;52.130;5.428;2022-12-18T15:59:10;18.50;;;9.65;;
73747;SDS011;62056;52.130;5.428;2022-12-18T16:01:38;19.97;;;9.73;;
73747;SDS011;62056;52.130;5.428;2022-12-18T16:04:10;13.23;;;7.93;;
73747;SDS011;62056;52.130;5.428;2022-12-18T16:06:38;14.85;;;8.25;;
73747;SDS011;62056;52.130;5.428;2022-12-18T16:09:24;16.58;;;8.60;;
73747;SDS011;62056;52.130;5.428;2022-12-18T16:11:52;18.75;;;9.38;;
73747;SDS011;62056;52.130;5.428;2022-12-18T16:14:23;15.10;;;9.57;;
73747;SDS011;62056;52.130;5.428;2022-12-18T16:16:53;15.13;;;7.75;;
73747;SDS011;62056;52.130;5.428;2022-12-18T16:19:22;16.13;;;9.07;;
73747;SDS011;62056;52.130;5.428;2022-12-18T16:21:50;13.88;;;8.50;;
73747;SDS011;62056;52.130;5.428;2022-12-18T16:24:19;19.20;;;8.63;;
73747;SDS011;62056;52.130;5.428;2022-12-18T16:26:50;17.10;;;8.43;;
73747;SDS011;62056;52.130;5.428;2022-12-18T16:29:18;14.15;;;8.63;;
73747;SDS011;62056;52.130;5.428;2022-12-18T16:31:45;10.45;;;7.88;;
73747;SDS011;62056;52.130;5.428;2022-12-18T16:34:19;12.27;;;7.25;;
73747;SDS011;62056;52.130;5.428;2022-12-18T16:36:55;15.32;;;8.73;;
73747;SDS011;62056;52.130;5.428;2022-12-18T16:39:30;11.73;;;6.37;;
73747;SDS011;62056;52.130;5.428;2022-12-18T16:41:58;13.48;;;7.22;;
73747;SDS011;62056;52.130;5.428;2022-12-18T16:44:27;16.55;;;8.85;;
73747;SDS011;62056;52.130;5.428;2022-12-18T16:46:53;16.50;;;8.55;;
73747;SDS011;62056;52.130;5.428;2022-12-18T16:49:20;14.82;;;8.90;;
73747;SDS011;62056;52.130;5.428;2022-12-18T16:51:47;12.10;;;7.30;;